createdAt,value
2022-09-11T00:00:19.928Z,53.40
2022-09-11T00:01:19.909Z,52.69
2022-09-11T00:02:19.922Z,53.01
2022-09-11T00:03:19.916Z,52.69
2022-09-11T00:04:19.893Z,52.91
2022-09-11T00:05:19.951Z,54.14
2022-09-11T00:06:28.975Z,53.43
2022-09-11T00:07:20.880Z,52.99
2022-09-11T00:08:19.842Z,54.23
2022-09-11T00:09:19.864Z,53.92
2022-09-11T00:10:19.827Z,54.30
2022-09-11T00:11:19.826Z,54.71
2022-09-11T00:12:19.811Z,52.79
2022-09-11T00:13:19.807Z,53.07
2022-09-11T00:14:19.797Z,54.48
2022-09-11T00:15:19.805Z,54.07
2022-09-11T00:16:19.805Z,54.54
2022-09-11T00:17:19.769Z,53.84
2022-09-11T00:18:19.782Z,52.73
2022-09-11T00:19:19.768Z,53.50
2022-09-11T00:20:19.739Z,54.39
2022-09-11T00:21:19.730Z,53.82
2022-09-11T00:22:19.728Z,53.52
2022-09-11T00:23:19.727Z,53.88
2022-09-11T00:24:19.733Z,54.98
2022-09-11T00:25:19.701Z,53.36
2022-09-11T00:26:19.690Z,54.32
2022-09-11T00:27:19.687Z,51.97
2022-09-11T00:28:19.680Z,53.65
2022-09-11T00:29:19.670Z,53.54
2022-09-11T00:30:19.686Z,53.23
2022-09-11T00:31:19.744Z,54.07
2022-09-11T00:32:19.646Z,53.22
2022-09-11T00:33:19.645Z,52.49
2022-09-11T00:34:19.657Z,53.36
2022-09-11T00:35:19.617Z,53.28
2022-09-11T00:36:19.608Z,53.73
2022-09-11T00:37:19.600Z,52.96
2022-09-11T00:38:19.588Z,51.99
2022-09-11T00:39:19.590Z,52.53
2022-09-11T00:40:19.595Z,51.63
2022-09-11T00:41:19.566Z,53.57
2022-09-11T00:42:19.550Z,54.63
2022-09-11T00:43:19.555Z,52.54
2022-09-11T00:44:19.536Z,51.27
2022-09-11T00:45:19.524Z,52.79
2022-09-11T00:46:19.532Z,52.99
2022-09-11T00:47:19.519Z,52.40
2022-09-11T00:48:19.504Z,52.49
2022-09-11T00:49:19.498Z,53.41
2022-09-11T00:50:19.670Z,52.95
2022-09-11T00:51:19.516Z,54.39
2022-09-11T00:52:19.475Z,53.14
2022-09-11T00:53:19.470Z,53.63
2022-09-11T00:54:19.460Z,51.79
2022-09-11T00:55:19.455Z,51.79
2022-09-11T00:56:19.444Z,52.96
2022-09-11T00:57:19.453Z,53.21
2022-09-11T00:58:19.424Z,53.11
2022-09-11T00:59:19.418Z,51.74
2022-09-11T01:00:19.414Z,52.37
2022-09-11T01:01:19.452Z,52.20
2022-09-11T01:02:19.431Z,52.96
2022-09-11T01:03:19.394Z,52.08
2022-09-11T01:04:19.382Z,54.99
2022-09-11T01:05:19.375Z,52.50
2022-09-11T01:06:19.355Z,54.01
2022-09-11T01:07:19.357Z,52.43
2022-09-11T01:08:19.361Z,52.35
2022-09-11T01:09:19.340Z,54.64
2022-09-11T01:10:19.323Z,53.96
2022-09-11T01:11:19.319Z,53.02
2022-09-11T01:12:19.313Z,53.05
2022-09-11T01:13:19.302Z,53.68
2022-09-11T01:14:19.313Z,53.60
2022-09-11T01:15:19.289Z,53.80
2022-09-11T01:16:19.328Z,54.49
2022-09-11T01:17:19.272Z,52.05
2022-09-11T01:18:19.255Z,53.58
2022-09-11T01:19:19.258Z,52.91
2022-09-11T01:20:19.248Z,53.14
2022-09-11T01:21:19.252Z,53.01
2022-09-11T01:22:19.265Z,52.84
2022-09-11T01:23:19.227Z,54.07
2022-09-11T01:24:19.224Z,53.19
2022-09-11T01:25:19.214Z,53.31
2022-09-11T01:26:19.232Z,53.78
2022-09-11T01:27:19.198Z,54.04
2022-09-11T01:28:19.186Z,54.52
2022-09-11T01:29:19.185Z,53.39
2022-09-11T01:30:19.167Z,52.66
2022-09-11T01:31:19.187Z,54.05
2022-09-11T01:32:19.170Z,54.40
2022-09-11T01:33:19.140Z,52.76
2022-09-11T01:34:19.135Z,52.60
2022-09-11T01:35:19.140Z,54.07
2022-09-11T01:36:19.125Z,53.55
2022-09-11T01:37:19.114Z,54.15
2022-09-11T01:38:19.125Z,54.09
2022-09-11T01:39:19.093Z,54.15
2022-09-11T01:40:19.078Z,53.74
2022-09-11T01:41:19.075Z,52.69
2022-09-11T01:42:19.073Z,52.00
2022-09-11T01:43:19.060Z,51.87
2022-09-11T01:44:19.067Z,53.37
2022-09-11T01:45:19.045Z,54.73
2022-09-11T01:46:19.031Z,53.34
2022-09-11T01:47:19.022Z,51.78
2022-09-11T01:48:19.041Z,52.92
2022-09-11T01:49:19.015Z,56.07
2022-09-11T01:50:18.997Z,55.62
2022-09-11T01:51:18.995Z,53.24
2022-09-11T01:52:18.990Z,53.67
2022-09-11T01:53:19.016Z,53.29
2022-09-11T01:54:18.971Z,54.43
2022-09-11T01:55:18.962Z,53.59
2022-09-11T01:56:18.947Z,53.86
2022-09-11T01:57:18.949Z,53.97
2022-09-11T01:58:18.939Z,55.24
2022-09-11T01:59:18.949Z,53.40
2022-09-11T02:00:18.923Z,52.73
2022-09-11T02:01:18.935Z,55.30
2022-09-11T02:02:18.936Z,53.01
2022-09-11T02:03:18.901Z,53.65
2022-09-11T02:04:18.888Z,54.25
2022-09-11T02:05:18.898Z,54.49
2022-09-11T02:06:18.894Z,54.30
2022-09-11T02:07:18.866Z,52.56
2022-09-11T02:08:18.862Z,53.46
2022-09-11T02:09:18.860Z,53.82
2022-09-11T02:10:18.858Z,52.75
2022-09-11T02:11:18.840Z,53.62
2022-09-11T02:12:18.819Z,52.35
2022-09-11T02:13:18.820Z,52.38
2022-09-11T02:14:18.804Z,53.18
2022-09-11T02:15:18.802Z,53.35
2022-09-11T02:16:18.844Z,52.81
2022-09-11T02:17:18.789Z,52.23
2022-09-11T02:18:18.782Z,55.12
2022-09-11T02:19:18.776Z,53.14
2022-09-11T02:20:18.760Z,52.79
2022-09-11T02:21:18.770Z,52.27
2022-09-11T02:22:18.745Z,53.03
2022-09-11T02:23:18.755Z,51.87
2022-09-11T02:24:18.725Z,52.26
2022-09-11T02:25:18.722Z,52.74
2022-09-11T02:26:18.711Z,51.78
2022-09-11T02:27:18.729Z,53.27
2022-09-11T02:28:18.700Z,51.49
2022-09-11T02:29:18.688Z,53.29
2022-09-11T02:30:18.700Z,51.97
2022-09-11T02:31:18.741Z,52.79
2022-09-11T02:32:18.665Z,54.32
2022-09-11T02:33:18.679Z,54.37
2022-09-11T02:34:18.646Z,53.00
2022-09-11T02:35:18.640Z,53.61
2022-09-11T02:36:18.627Z,52.13
2022-09-11T02:37:18.630Z,53.07
2022-09-11T02:38:18.612Z,52.10
2022-09-11T02:39:18.618Z,52.31
2022-09-11T02:40:18.594Z,53.03
2022-09-11T02:41:18.586Z,52.91
2022-09-11T02:42:18.591Z,52.14
2022-09-11T02:43:18.573Z,51.66
2022-09-11T02:44:18.552Z,50.48
2022-09-11T02:45:18.648Z,53.71
2022-09-11T02:46:18.542Z,52.45
2022-09-11T02:47:18.541Z,53.27
2022-09-11T02:48:18.554Z,52.02
2022-09-11T02:49:18.528Z,52.17
2022-09-11T02:50:18.509Z,52.33
2022-09-11T02:51:18.507Z,53.27
2022-09-11T02:52:18.490Z,52.84
2022-09-11T02:53:18.486Z,52.79
2022-09-11T02:54:18.506Z,52.28
2022-09-11T02:55:18.464Z,53.30
2022-09-11T02:56:18.456Z,54.22
2022-09-11T02:57:18.450Z,54.30
2022-09-11T02:58:18.439Z,52.57
2022-09-11T02:59:18.435Z,51.05
2022-09-11T03:00:18.447Z,52.82
2022-09-11T03:01:18.423Z,54.27
2022-09-11T03:02:18.458Z,53.16
2022-09-11T03:03:18.403Z,52.53
2022-09-11T03:04:18.399Z,52.72
2022-09-11T03:05:18.387Z,53.01
2022-09-11T03:06:18.401Z,52.15
2022-09-11T03:07:18.371Z,50.89
2022-09-11T03:08:18.364Z,54.84
2022-09-11T03:09:18.352Z,50.34
2022-09-11T03:10:18.372Z,50.57
2022-09-11T03:11:18.337Z,51.65
2022-09-11T03:12:18.333Z,53.75
2022-09-11T03:13:18.329Z,54.04
2022-09-11T03:14:18.309Z,52.40
2022-09-11T03:15:18.302Z,50.39
2022-09-11T03:16:18.407Z,53.79
2022-09-11T03:17:18.302Z,52.93
2022-09-11T03:18:18.284Z,51.86
2022-09-11T03:19:18.281Z,53.16
2022-09-11T03:20:18.266Z,52.29
2022-09-11T03:21:18.286Z,52.61
2022-09-11T03:22:18.257Z,51.68
2022-09-11T03:23:18.242Z,51.71
2022-09-11T03:24:25.257Z,55.61
2022-09-11T03:25:18.227Z,55.36
2022-09-11T03:26:18.212Z,54.07
2022-09-11T03:27:18.227Z,53.96
2022-09-11T03:28:18.216Z,52.91
2022-09-11T03:29:18.200Z,54.02
2022-09-11T03:30:18.203Z,53.13
2022-09-11T03:31:18.241Z,52.41
2022-09-11T03:32:18.172Z,53.31
2022-09-11T03:33:18.172Z,52.76
2022-09-11T03:34:18.149Z,51.97
2022-09-11T03:35:18.155Z,54.86
2022-09-11T03:36:18.123Z,52.73
2022-09-11T03:37:18.119Z,52.48
2022-09-11T03:38:18.108Z,54.40
2022-09-11T03:39:18.098Z,53.17
2022-09-11T03:40:18.097Z,53.12
2022-09-11T03:41:18.113Z,53.97
2022-09-11T03:42:18.073Z,53.97
2022-09-11T03:43:18.241Z,53.28
2022-09-11T03:44:18.057Z,53.10
2022-09-11T03:45:18.052Z,53.80
2022-09-11T03:46:18.035Z,52.48
2022-09-11T03:47:18.027Z,52.99
2022-09-11T03:48:18.025Z,53.64
2022-09-11T03:49:18.220Z,53.62
2022-09-11T03:50:18.009Z,54.32
2022-09-11T03:51:18.003Z,51.57
2022-09-11T03:52:17.989Z,51.71
2022-09-11T03:53:17.991Z,52.71
2022-09-11T03:54:17.978Z,54.38
2022-09-11T03:55:17.985Z,53.01
2022-09-11T03:56:17.966Z,53.62
2022-09-11T03:57:17.955Z,51.55
2022-09-11T03:58:17.941Z,53.37
2022-09-11T03:59:17.950Z,54.67
2022-09-11T04:00:17.941Z,53.91
2022-09-11T04:01:17.966Z,52.26
2022-09-11T04:02:17.973Z,52.57
2022-09-11T04:03:17.901Z,53.87
2022-09-11T04:04:17.884Z,52.07
2022-09-11T04:05:17.878Z,52.68
2022-09-11T04:06:17.871Z,52.91
2022-09-11T04:07:17.877Z,55.39
2022-09-11T04:08:17.865Z,52.98
2022-09-11T04:09:17.846Z,53.25
2022-09-11T04:10:17.855Z,52.15
2022-09-11T04:11:17.856Z,54.80
2022-09-11T04:12:17.824Z,53.11
2022-09-11T04:13:17.815Z,54.57
2022-09-11T04:14:17.808Z,53.94
2022-09-11T04:15:17.824Z,53.03
2022-09-11T04:16:17.841Z,53.20
2022-09-11T04:17:17.781Z,53.67
2022-09-11T04:18:17.772Z,53.61
2022-09-11T04:19:17.762Z,52.73
2022-09-11T04:20:17.746Z,53.79
2022-09-11T04:21:17.766Z,53.44
2022-09-11T04:22:17.735Z,53.14
2022-09-11T04:23:17.727Z,54.43
2022-09-11T04:24:17.718Z,55.58
2022-09-11T04:25:17.708Z,52.04
2022-09-11T04:26:17.697Z,52.01
2022-09-11T04:27:17.722Z,52.05
2022-09-11T04:28:17.683Z,51.13
2022-09-11T04:29:17.690Z,52.38
2022-09-11T04:30:17.666Z,52.93
2022-09-11T04:31:17.726Z,52.58
2022-09-11T04:32:17.644Z,53.76
2022-09-11T04:33:17.663Z,52.75
2022-09-11T04:34:17.631Z,53.40
2022-09-11T04:35:17.628Z,54.55
2022-09-11T04:36:17.614Z,53.41
2022-09-11T04:37:17.614Z,53.25
2022-09-11T04:38:17.603Z,53.55
2022-09-11T04:39:17.750Z,53.74
2022-09-11T04:40:17.585Z,54.30
2022-09-11T04:41:17.584Z,52.92
2022-09-11T04:42:17.568Z,53.20
2022-09-11T04:43:17.561Z,54.60
2022-09-11T04:44:17.554Z,53.03
2022-09-11T04:45:17.564Z,55.62
2022-09-11T04:46:17.531Z,53.42
2022-09-11T04:47:17.523Z,52.72
2022-09-11T04:48:17.513Z,53.66
2022-09-11T04:49:17.510Z,53.99
2022-09-11T04:50:17.509Z,52.65
2022-09-11T04:51:17.517Z,52.65
2022-09-11T04:52:17.504Z,53.24
2022-09-11T04:53:17.478Z,53.85
2022-09-11T04:54:17.491Z,53.56
2022-09-11T04:55:17.465Z,53.17
2022-09-11T04:56:17.457Z,53.94
2022-09-11T04:57:17.469Z,55.68
2022-09-11T04:58:17.450Z,54.71
2022-09-11T04:59:17.439Z,52.87
2022-09-11T05:00:17.415Z,53.44
2022-09-11T05:01:17.438Z,53.77
2022-09-11T05:02:17.465Z,52.72
2022-09-11T05:03:17.394Z,52.23
2022-09-11T05:04:17.396Z,52.82
2022-09-11T05:05:17.396Z,52.83
2022-09-11T05:06:17.373Z,55.68
2022-09-11T05:07:17.360Z,54.43
2022-09-11T05:08:17.380Z,52.80
2022-09-11T05:09:17.346Z,51.91
2022-09-11T05:10:17.338Z,52.86
2022-09-11T05:11:17.335Z,52.62
2022-09-11T05:12:17.326Z,53.11
2022-09-11T05:13:17.319Z,53.17
2022-09-11T05:14:17.323Z,52.36
2022-09-11T05:15:17.300Z,52.30
2022-09-11T05:16:17.347Z,54.14
2022-09-11T05:17:17.302Z,52.73
2022-09-11T05:18:17.271Z,55.13
2022-09-11T05:19:17.291Z,53.74
2022-09-11T05:20:17.262Z,53.68
2022-09-11T05:21:17.258Z,54.20
2022-09-11T05:22:17.275Z,54.43
2022-09-11T05:23:17.252Z,53.79
2022-09-11T05:24:17.232Z,53.83
2022-09-11T05:25:17.226Z,53.57
2022-09-11T05:26:17.208Z,53.27
2022-09-11T05:27:17.209Z,52.53
2022-09-11T05:28:17.224Z,54.25
2022-09-11T05:29:17.185Z,55.10
2022-09-11T05:30:17.174Z,55.09
2022-09-11T05:31:17.202Z,53.62
2022-09-11T05:32:17.159Z,53.40
2022-09-11T05:33:17.154Z,56.41
2022-09-11T05:34:17.166Z,53.57
2022-09-11T05:35:17.132Z,52.00
2022-09-11T05:36:17.146Z,53.73
2022-09-11T05:37:17.117Z,54.40
2022-09-11T05:38:17.110Z,55.32
2022-09-11T05:39:17.118Z,55.08
2022-09-11T05:40:17.125Z,53.41
2022-09-11T05:41:17.109Z,53.28
2022-09-11T05:42:17.098Z,54.27
2022-09-11T05:43:17.070Z,54.83
2022-09-11T05:44:17.077Z,53.93
2022-09-11T05:45:17.056Z,54.28
2022-09-11T05:46:17.047Z,54.56
2022-09-11T05:47:17.048Z,54.10
2022-09-11T05:48:17.036Z,55.33
2022-09-11T05:49:17.231Z,54.86
2022-09-11T05:50:17.014Z,54.09
2022-09-11T05:51:17.009Z,53.91
2022-09-11T05:52:16.996Z,53.43
2022-09-11T05:53:17.009Z,53.66
2022-09-11T05:54:16.974Z,54.64
2022-09-11T05:55:16.991Z,55.63
2022-09-11T05:56:16.968Z,54.24
2022-09-11T05:57:16.959Z,55.78
2022-09-11T05:58:16.948Z,52.86
2022-09-11T05:59:16.949Z,53.09
2022-09-11T06:00:16.929Z,54.83
2022-09-11T06:01:16.985Z,53.57
2022-09-11T06:02:17.169Z,53.34
2022-09-11T06:03:16.921Z,54.17
2022-09-11T06:04:16.901Z,53.15
2022-09-11T06:05:16.898Z,57.31
2022-09-11T06:06:16.884Z,52.57
2022-09-11T06:07:16.888Z,55.10
2022-09-11T06:08:16.898Z,53.79
2022-09-11T06:09:16.872Z,53.40
2022-09-11T06:10:16.858Z,53.72
2022-09-11T06:11:16.845Z,53.38
2022-09-11T06:12:16.828Z,52.80
2022-09-11T06:13:16.841Z,54.26
2022-09-11T06:14:16.840Z,54.97
2022-09-11T06:15:42.906Z,54.87
2022-09-11T06:16:18.802Z,55.18
2022-09-11T06:17:16.790Z,55.25
2022-09-11T06:18:16.783Z,53.66
2022-09-11T06:19:16.781Z,54.70
2022-09-11T06:20:16.770Z,53.96
2022-09-11T06:21:16.785Z,53.37
2022-09-11T06:22:16.760Z,54.43
2022-09-11T06:23:16.753Z,56.69
2022-09-11T06:24:16.760Z,54.48
2022-09-11T06:25:16.752Z,51.96
2022-09-11T06:26:16.720Z,55.33
2022-09-11T06:27:16.715Z,54.82
2022-09-11T06:28:16.724Z,53.85
2022-09-11T06:29:16.726Z,54.06
2022-09-11T06:30:16.690Z,54.35
2022-09-11T06:31:16.705Z,55.03
2022-09-11T06:32:16.669Z,56.92
2022-09-11T06:33:16.672Z,54.21
2022-09-11T06:34:16.674Z,53.85
2022-09-11T06:35:16.639Z,54.46
2022-09-11T06:36:16.667Z,54.63
2022-09-11T06:37:16.634Z,56.46
2022-09-11T06:38:16.638Z,54.59
2022-09-11T06:39:16.647Z,54.69
2022-09-11T06:40:16.642Z,55.90
2022-09-11T06:41:16.618Z,54.38
2022-09-11T06:42:16.612Z,55.53
2022-09-11T06:43:16.574Z,55.57
2022-09-11T06:44:16.571Z,57.23
2022-09-11T06:45:16.564Z,56.49
2022-09-11T06:46:16.559Z,54.22
2022-09-11T06:47:16.564Z,54.31
2022-09-11T06:48:16.557Z,54.74
2022-09-11T06:49:16.531Z,55.60
2022-09-11T06:50:16.541Z,54.53
2022-09-11T06:51:16.525Z,56.85
2022-09-11T06:52:16.501Z,55.28
2022-09-11T06:53:16.512Z,56.72
2022-09-11T06:54:16.485Z,53.29
2022-09-11T06:55:16.489Z,55.88
2022-09-11T06:56:16.485Z,56.01
2022-09-11T06:57:16.462Z,57.35
2022-09-11T06:58:16.453Z,57.01
2022-09-11T06:59:16.445Z,54.51
2022-09-11T07:00:16.432Z,55.45
2022-09-11T07:01:16.610Z,56.30
2022-09-11T07:02:16.458Z,56.92
2022-09-11T07:03:16.404Z,53.87
2022-09-11T07:04:16.409Z,55.62
2022-09-11T07:05:16.423Z,56.44
2022-09-11T07:06:16.390Z,56.93
2022-09-11T07:07:16.419Z,56.54
2022-09-11T07:08:16.375Z,57.32
2022-09-11T07:09:16.373Z,56.22
2022-09-11T07:10:16.359Z,56.48
2022-09-11T07:11:16.376Z,57.99
2022-09-11T07:12:16.341Z,56.10
2022-09-11T07:13:16.336Z,55.98
2022-09-11T07:14:16.330Z,57.08
2022-09-11T07:15:16.321Z,55.32
2022-09-11T07:16:16.378Z,55.79
2022-09-11T07:17:16.323Z,55.62
2022-09-11T07:18:16.285Z,56.40
2022-09-11T07:19:16.296Z,54.42
2022-09-11T07:20:16.278Z,57.20
2022-09-11T07:21:16.271Z,56.45
2022-09-11T07:22:16.254Z,55.62
2022-09-11T07:23:16.269Z,56.91
2022-09-11T07:24:16.256Z,56.75
2022-09-11T07:25:16.232Z,56.51
2022-09-11T07:26:16.224Z,56.94
2022-09-11T07:27:16.254Z,55.97
2022-09-11T07:28:16.236Z,54.60
2022-09-11T07:29:16.239Z,57.75
2022-09-11T07:30:16.185Z,57.06
2022-09-11T07:31:20.516Z,57.00
2022-09-11T07:32:16.173Z,55.64
2022-09-11T07:33:16.162Z,57.11
2022-09-11T07:34:16.186Z,55.91
2022-09-11T07:35:16.163Z,57.40
2022-09-11T07:36:16.129Z,56.23
2022-09-11T07:37:16.126Z,55.26
2022-09-11T07:38:16.111Z,56.70
2022-09-11T07:39:16.110Z,56.30
2022-09-11T07:40:16.162Z,57.80
2022-09-11T07:41:16.083Z,56.87
2022-09-11T07:42:16.276Z,55.83
2022-09-11T07:43:16.066Z,57.05
2022-09-11T07:44:16.060Z,56.70
2022-09-11T07:45:17.914Z,55.42
2022-09-11T07:46:16.052Z,56.81
2022-09-11T07:47:16.036Z,58.14
2022-09-11T07:48:16.049Z,57.27
2022-09-11T07:49:16.038Z,56.54
2022-09-11T07:50:16.006Z,56.12
2022-09-11T07:51:15.997Z,55.45
2022-09-11T07:52:16.971Z,56.07
2022-09-11T07:53:15.987Z,56.64
2022-09-11T07:54:15.998Z,55.73
2022-09-11T07:55:15.970Z,56.40
2022-09-11T07:56:15.965Z,57.29
2022-09-11T07:57:15.957Z,56.94
2022-09-11T07:58:15.962Z,56.02
2022-09-11T07:59:15.935Z,57.22
2022-09-11T08:00:15.959Z,56.66
2022-09-11T08:01:16.010Z,57.06
2022-09-11T08:02:15.914Z,56.73
2022-09-11T08:03:15.904Z,56.67
2022-09-11T08:04:15.945Z,56.89
2022-09-11T08:05:15.884Z,56.76
2022-09-11T08:06:20.099Z,56.76
2022-09-11T08:07:16.873Z,56.13
2022-09-11T08:08:15.863Z,56.49
2022-09-11T08:09:15.863Z,56.12
2022-09-11T08:10:27.112Z,58.01
2022-09-11T08:11:16.867Z,56.65
2022-09-11T08:12:15.832Z,56.85
2022-09-11T08:13:15.829Z,56.52
2022-09-11T08:14:15.818Z,56.67
2022-09-11T08:15:15.837Z,57.21
2022-09-11T08:16:15.847Z,57.90
2022-09-11T08:17:15.830Z,56.50
2022-09-11T08:18:15.786Z,56.95
2022-09-11T08:19:15.781Z,57.35
2022-09-11T08:20:15.776Z,57.18
2022-09-11T08:21:15.774Z,56.74
2022-09-11T08:22:15.766Z,55.87
2022-09-11T08:23:15.791Z,55.80
2022-09-11T08:24:15.819Z,56.26
2022-09-11T08:25:15.740Z,56.23
2022-09-11T08:26:15.730Z,55.72
2022-09-11T08:27:15.750Z,54.18
2022-09-11T08:28:15.721Z,54.63
2022-09-11T08:29:15.708Z,55.16
2022-09-11T08:30:15.708Z,54.86
2022-09-11T08:31:15.735Z,55.53
2022-09-11T08:32:15.681Z,56.50
2022-09-11T08:33:15.733Z,56.65
2022-09-11T08:34:15.664Z,57.59
2022-09-11T08:35:15.659Z,57.61
2022-09-11T08:36:15.653Z,58.16
2022-09-11T08:37:15.665Z,56.78
2022-09-11T08:38:15.695Z,56.98
2022-09-11T08:39:15.634Z,56.08
2022-09-11T08:40:15.645Z,55.98
2022-09-11T08:41:15.648Z,57.06
2022-09-11T08:42:15.611Z,57.36
2022-09-11T08:43:15.599Z,56.50
2022-09-11T08:44:15.634Z,56.67
2022-09-11T08:45:15.584Z,56.55
2022-09-11T08:46:15.578Z,55.83
2022-09-11T08:47:15.579Z,55.37
2022-09-11T08:48:15.565Z,55.67
2022-09-11T08:49:15.559Z,56.36
2022-09-11T08:50:15.566Z,57.25
2022-09-11T08:51:15.543Z,56.44
2022-09-11T08:52:15.531Z,56.09
2022-09-11T08:53:15.532Z,56.32
2022-09-11T08:54:15.527Z,56.03
2022-09-11T08:55:15.514Z,57.26
2022-09-11T08:56:15.549Z,57.44
2022-09-11T08:57:15.495Z,56.63
2022-09-11T08:58:15.515Z,57.21
2022-09-11T08:59:15.495Z,56.92
2022-09-11T09:00:15.498Z,57.23
2022-09-11T09:01:15.545Z,56.59
2022-09-11T09:02:15.533Z,57.33
2022-09-11T09:03:15.461Z,57.28
2022-09-11T09:04:15.465Z,57.81
2022-09-11T09:05:15.463Z,57.57
2022-09-11T09:06:15.433Z,56.64
2022-09-11T09:07:15.432Z,56.81
2022-09-11T09:08:15.444Z,55.88
2022-09-11T09:09:15.409Z,56.53
2022-09-11T09:10:15.410Z,57.23
2022-09-11T09:11:15.428Z,56.64
2022-09-11T09:12:15.400Z,56.38
2022-09-11T09:13:15.388Z,56.20
2022-09-11T09:14:15.392Z,56.31
2022-09-11T09:15:15.365Z,58.30
2022-09-11T09:16:15.435Z,58.34
2022-09-11T09:17:15.399Z,57.74
2022-09-11T09:18:15.353Z,57.83
2022-09-11T09:19:15.342Z,58.23
2022-09-11T09:20:15.340Z,57.51
2022-09-11T09:21:15.364Z,57.67
2022-09-11T09:22:15.340Z,56.81
2022-09-11T09:23:15.323Z,57.18
2022-09-11T09:24:15.298Z,57.11
2022-09-11T09:25:15.297Z,57.28
2022-09-11T09:28:21.454Z,57.70
2022-09-11T09:29:21.499Z,57.68
2022-09-11T09:30:21.469Z,57.60
2022-09-11T09:31:21.511Z,57.87
2022-09-11T09:32:21.433Z,57.27
2022-09-11T09:33:21.421Z,56.39
2022-09-11T09:34:21.416Z,56.58
2022-09-11T09:35:21.420Z,56.07
2022-09-11T09:36:21.437Z,56.94
2022-09-11T09:37:21.396Z,56.80
2022-09-11T09:38:25.081Z,55.77
2022-09-11T09:39:21.380Z,55.33
2022-09-11T09:40:21.405Z,55.07
2022-09-11T09:41:21.372Z,55.29
2022-09-11T09:42:21.362Z,54.51
2022-09-11T09:43:21.387Z,56.75
2022-09-11T09:44:21.354Z,56.83
2022-09-11T09:45:21.364Z,56.44
2022-09-11T09:46:21.344Z,54.79
2022-09-11T09:47:21.353Z,56.08
2022-09-11T09:48:21.329Z,54.43
2022-09-11T09:49:21.318Z,54.67
2022-09-11T09:50:21.326Z,55.22
2022-09-11T09:51:21.327Z,55.59
2022-09-11T09:52:21.298Z,54.99
2022-09-11T09:53:21.305Z,56.06
2022-09-11T09:54:21.295Z,56.16
2022-09-11T09:55:21.295Z,56.21
2022-09-11T09:56:21.267Z,55.67
2022-09-11T09:57:21.277Z,56.12
2022-09-11T09:58:21.246Z,55.22
2022-09-11T09:59:21.234Z,54.45
2022-09-11T10:00:21.246Z,54.52
2022-09-11T10:01:21.277Z,55.06
2022-09-11T10:02:21.238Z,54.31
2022-09-11T10:03:21.236Z,55.45
2022-09-11T10:04:21.206Z,54.82
2022-09-11T10:05:21.194Z,54.57
2022-09-11T10:06:21.211Z,55.32
2022-09-11T10:07:21.185Z,54.50
2022-09-11T10:08:21.188Z,55.36
2022-09-11T10:09:21.185Z,54.57
2022-09-11T10:10:21.156Z,55.26
2022-09-11T10:11:21.190Z,54.68
2022-09-11T10:12:21.136Z,55.04
2022-09-11T10:13:21.139Z,55.48
2022-09-11T10:14:49.290Z,56.41
2022-09-11T10:15:22.119Z,55.82
2022-09-11T10:16:21.235Z,54.23
2022-09-11T10:17:21.106Z,54.90
2022-09-11T10:18:21.104Z,55.62
2022-09-11T10:19:21.098Z,56.14
2022-09-11T10:20:21.138Z,55.98
2022-09-11T10:21:21.081Z,55.99
2022-09-11T10:22:21.088Z,55.99
2022-09-11T10:23:21.066Z,57.99
2022-09-11T10:24:21.045Z,55.71
2022-09-11T10:25:21.043Z,55.63
2022-09-11T10:26:21.069Z,55.98
2022-09-11T10:27:22.063Z,55.86
2022-09-11T10:28:21.019Z,56.02
2022-09-11T10:29:21.023Z,55.89
2022-09-11T10:30:21.009Z,56.81
2022-09-11T10:31:21.047Z,56.43
2022-09-11T10:32:21.003Z,58.81
2022-09-11T10:33:20.980Z,63.94
2022-09-11T10:34:20.986Z,62.63
2022-09-11T10:35:20.977Z,66.73
2022-09-11T10:36:20.961Z,58.91
2022-09-11T10:37:20.972Z,57.24
2022-09-11T10:38:20.958Z,57.07
2022-09-11T10:39:20.933Z,56.95
2022-09-11T10:40:20.938Z,57.46
2022-09-11T10:41:20.927Z,56.95
2022-09-11T10:42:20.940Z,58.21
2022-09-11T10:43:20.903Z,57.63
2022-09-11T10:44:20.900Z,57.01
2022-09-11T10:45:20.890Z,56.99
2022-09-11T10:46:20.900Z,57.83
2022-09-11T10:47:20.870Z,57.36
2022-09-11T10:48:20.886Z,57.35
2022-09-11T10:49:20.855Z,58.00
2022-09-11T10:50:20.850Z,57.37
2022-09-11T10:51:20.837Z,57.96
2022-09-11T10:52:20.840Z,57.12
2022-09-11T10:53:20.846Z,57.11
2022-09-11T10:54:20.839Z,57.61
2022-09-11T10:55:20.822Z,58.84
2022-09-11T10:56:20.830Z,58.49
2022-09-11T10:57:20.811Z,57.61
2022-09-11T10:58:20.801Z,57.64
2022-09-11T10:59:20.790Z,58.51
2022-09-11T11:00:20.800Z,59.05
2022-09-11T11:01:20.788Z,58.41
2022-09-11T11:02:20.801Z,58.31
2022-09-11T11:03:20.757Z,59.30
2022-09-11T11:04:20.751Z,58.44
2022-09-11T11:05:20.759Z,58.61
2022-09-11T11:06:20.741Z,59.05
2022-09-11T11:07:20.914Z,57.15
2022-09-11T11:08:20.722Z,57.83
2022-09-11T11:09:20.715Z,58.00
2022-09-11T11:10:20.705Z,57.68
2022-09-11T11:11:20.692Z,56.53
2022-09-11T11:12:20.691Z,58.03
2022-09-11T11:13:20.706Z,57.57
2022-09-11T11:14:20.676Z,56.67
2022-09-11T11:15:20.659Z,57.41
2022-09-11T11:16:20.738Z,57.34
2022-09-11T11:17:20.661Z,56.82
2022-09-11T11:18:20.651Z,58.07
2022-09-11T11:19:20.637Z,57.69
2022-09-11T11:20:20.649Z,57.33
2022-09-11T11:21:20.630Z,56.61
2022-09-11T11:22:20.616Z,57.33
2022-09-11T11:23:20.604Z,57.61
2022-09-11T11:24:20.618Z,57.36
2022-09-11T11:25:20.608Z,55.99
2022-09-11T11:26:20.580Z,55.98
2022-09-11T11:27:20.569Z,56.15
2022-09-11T11:28:20.562Z,56.14
2022-09-11T11:29:20.558Z,55.47
2022-09-11T11:30:20.575Z,54.62
2022-09-11T11:31:20.560Z,55.50
2022-09-11T11:32:20.543Z,55.52
2022-09-11T11:33:20.561Z,56.10
2022-09-11T11:34:20.554Z,56.02
2022-09-11T11:35:20.508Z,56.58
2022-09-11T11:36:20.501Z,56.67
2022-09-11T11:37:20.518Z,56.40
2022-09-11T11:38:20.495Z,56.11
2022-09-11T11:39:20.485Z,56.70
2022-09-11T11:40:20.520Z,56.15
2022-09-11T11:41:20.476Z,57.57
2022-09-11T11:42:20.468Z,56.80
2022-09-11T11:43:20.454Z,55.76
2022-09-11T11:44:20.442Z,56.24
2022-09-11T11:45:20.438Z,57.80
2022-09-11T11:46:20.451Z,56.76
2022-09-11T11:47:20.417Z,56.28
2022-09-11T11:48:20.416Z,56.41
2022-09-11T11:49:20.405Z,56.42
2022-09-11T11:50:20.441Z,56.32
2022-09-11T11:51:20.409Z,56.70
2022-09-11T11:52:20.495Z,56.96
2022-09-11T11:53:20.438Z,56.03
2022-09-11T11:54:20.373Z,56.47
2022-09-11T11:55:20.361Z,56.84
2022-09-11T11:56:20.360Z,56.94
2022-09-11T11:57:20.342Z,57.21
2022-09-11T11:58:20.350Z,57.50
2022-09-11T11:59:20.327Z,56.31
2022-09-11T12:00:20.326Z,57.09
2022-09-11T12:01:20.342Z,57.09
2022-09-11T12:02:20.315Z,57.35
2022-09-11T12:03:20.338Z,57.12
2022-09-11T12:04:20.298Z,57.41
2022-09-11T12:05:20.270Z,57.49
2022-09-11T12:06:20.266Z,56.17
2022-09-11T12:07:20.290Z,56.53
2022-09-11T12:08:20.259Z,57.06
2022-09-11T12:09:20.424Z,58.67
2022-09-11T12:10:20.249Z,57.63
2022-09-11T12:11:20.230Z,56.32
2022-09-11T12:12:20.233Z,56.15
2022-09-11T12:13:20.208Z,55.74
2022-09-11T12:14:20.212Z,55.89
2022-09-11T12:15:20.221Z,55.97
2022-09-11T12:16:20.222Z,55.47
2022-09-11T12:17:20.196Z,56.70
2022-09-11T12:18:20.195Z,56.87
2022-09-11T12:19:20.179Z,57.26
2022-09-11T12:20:20.170Z,56.03
2022-09-11T12:21:20.211Z,56.97
2022-09-11T12:22:20.151Z,57.87
2022-09-11T12:23:20.155Z,56.96
2022-09-11T12:24:20.138Z,57.72
2022-09-11T12:25:20.131Z,57.00
2022-09-11T12:26:20.114Z,57.25
2022-09-11T12:27:20.125Z,58.21
2022-09-11T12:28:20.103Z,57.91
2022-09-11T12:29:20.091Z,59.00
2022-09-11T12:30:20.287Z,58.22
2022-09-11T12:31:20.108Z,58.01
2022-09-11T12:32:20.071Z,58.80
2022-09-11T12:33:20.058Z,59.51
2022-09-11T12:34:20.056Z,58.61
2022-09-11T12:35:20.047Z,58.06
2022-09-11T12:36:20.075Z,57.68
2022-09-11T12:37:20.024Z,57.76
2022-09-11T12:38:20.024Z,56.98
2022-09-11T12:39:20.056Z,56.92
2022-09-11T12:40:20.053Z,58.05
2022-09-11T12:41:19.999Z,57.24
2022-09-11T12:42:19.995Z,58.68
2022-09-11T12:43:19.985Z,58.29
2022-09-11T12:44:19.988Z,58.40
2022-09-11T12:45:19.989Z,57.96
2022-09-11T12:46:19.958Z,57.32
2022-09-11T12:47:19.964Z,58.55
2022-09-11T12:48:19.944Z,58.27
2022-09-11T12:49:22.754Z,59.32
2022-09-11T12:50:19.946Z,58.83
2022-09-11T12:51:19.922Z,57.82
2022-09-11T12:52:19.935Z,58.51
2022-09-11T12:53:19.908Z,58.15
2022-09-11T12:54:19.899Z,58.85